createdAt,value
2022-08-18T00:02:10.787Z,61.70
2022-08-18T00:04:48.995Z,61.80
2022-08-18T00:07:26.133Z,61.90
2022-08-18T00:10:00.916Z,62.00
2022-08-18T00:12:37.791Z,62.00
2022-08-18T00:15:15.454Z,62.00
2022-08-18T00:17:49.580Z,62.10
2022-08-18T00:20:25.307Z,62.10
2022-08-18T00:22:59.279Z,61.80
2022-08-18T00:25:33.256Z,61.70
2022-08-18T00:28:07.541Z,61.70
2022-08-18T00:30:42.974Z,61.60
2022-08-18T00:33:16.980Z,61.70
2022-08-18T00:35:51.025Z,61.60
2022-08-18T00:38:25.649Z,61.60
2022-08-18T00:40:59.773Z,61.60
2022-08-18T00:43:43.690Z,61.60
2022-08-18T00:46:21.221Z,61.60
2022-08-18T00:48:55.483Z,61.50
2022-08-18T00:51:40.158Z,61.50
2022-08-18T00:54:17.296Z,61.50
2022-08-18T00:56:56.379Z,61.50
2022-08-18T00:59:34.797Z,61.50
2022-08-18T01:02:16.045Z,61.60
2022-08-18T01:04:55.544Z,61.60
2022-08-18T01:07:35.588Z,61.50
2022-08-18T01:10:10.129Z,61.50
2022-08-18T01:12:46.643Z,61.50
2022-08-18T01:15:28.704Z,61.50
2022-08-18T01:18:25.732Z,61.40
2022-08-18T01:21:34.458Z,61.40
2022-08-18T01:24:13.108Z,61.50
2022-08-18T01:26:50.448Z,61.50
2022-08-18T01:29:24.410Z,61.50
2022-08-18T01:31:58.351Z,61.50
2022-08-18T01:34:32.295Z,61.50
2022-08-18T01:37:06.719Z,61.40
2022-08-18T01:41:17.648Z,61.50
2022-08-18T01:42:37.740Z,61.50
2022-08-18T01:45:12.964Z,61.40
2022-08-18T01:47:48.613Z,61.40
2022-08-18T01:50:22.928Z,61.40
2022-08-18T01:52:56.933Z,61.40
2022-08-18T01:55:32.571Z,61.40
2022-08-18T01:58:08.053Z,61.40
2022-08-18T02:00:43.137Z,61.40
2022-08-18T02:03:17.399Z,61.50
2022-08-18T02:05:53.404Z,61.40
2022-08-18T02:08:28.100Z,61.40
2022-08-18T02:11:04.700Z,61.40
2022-08-18T02:13:38.808Z,61.40
2022-08-18T02:16:13.073Z,61.40
2022-08-18T02:18:48.967Z,61.30
2022-08-18T02:21:23.438Z,61.40
2022-08-18T02:23:57.509Z,61.60
2022-08-18T02:26:32.908Z,61.50
2022-08-18T02:29:07.006Z,61.60
2022-08-18T02:31:41.061Z,61.50
2022-08-18T02:34:16.114Z,61.50
2022-08-18T02:36:50.246Z,61.50
2022-08-18T02:39:24.338Z,61.50
2022-08-18T02:41:59.845Z,61.50
2022-08-18T02:44:37.052Z,61.50
2022-08-18T02:47:11.090Z,61.50
2022-08-18T02:49:45.150Z,61.50
2022-08-18T02:52:19.257Z,62.00
2022-08-18T02:54:53.367Z,61.50
2022-08-18T02:57:29.697Z,61.50
2022-08-18T03:00:03.901Z,61.50
2022-08-18T03:02:38.590Z,61.40
2022-08-18T03:05:14.876Z,61.40
2022-08-18T03:07:50.603Z,61.40
2022-08-18T03:10:31.852Z,61.40
2022-08-18T03:13:09.047Z,61.40
2022-08-18T03:15:43.067Z,61.40
2022-08-18T03:18:17.181Z,61.40
2022-08-18T03:20:51.199Z,61.40
2022-08-18T03:23:29.996Z,61.30
2022-08-18T03:26:04.943Z,61.30
2022-08-18T03:28:41.251Z,61.30
2022-08-18T03:31:17.229Z,61.30
2022-08-18T03:33:52.079Z,61.30
2022-08-18T03:36:28.340Z,61.20
2022-08-18T03:39:05.706Z,61.30
2022-08-18T03:41:56.927Z,61.30
2022-08-18T03:44:36.691Z,61.30
2022-08-18T03:47:12.053Z,61.30
2022-08-18T03:49:46.300Z,61.20
2022-08-18T03:52:20.249Z,61.20
2022-08-18T03:54:54.889Z,61.20
2022-08-18T03:57:28.952Z,61.20
2022-08-18T04:00:09.810Z,61.20
2022-08-18T04:02:43.715Z,61.20
2022-08-18T04:05:17.949Z,61.20
2022-08-18T04:07:52.100Z,61.10
2022-08-18T04:10:26.727Z,61.20
2022-08-18T04:13:00.645Z,61.20
2022-08-18T04:15:35.998Z,61.20
2022-08-18T04:18:10.129Z,61.80
2022-08-18T04:20:54.708Z,61.20
2022-08-18T04:23:43.854Z,61.20
2022-08-18T04:26:19.268Z,61.10
2022-08-18T04:28:53.437Z,61.10
2022-08-18T04:31:29.749Z,61.20
2022-08-18T04:34:04.802Z,61.10
2022-08-18T04:36:39.671Z,61.20
2022-08-18T04:39:16.954Z,61.10
2022-08-18T04:41:51.054Z,61.10
2022-08-18T04:44:25.008Z,61.10
2022-08-18T04:47:03.133Z,61.10
2022-08-18T04:49:37.906Z,61.10
2022-08-18T04:52:40.281Z,61.10
2022-08-18T04:55:15.527Z,61.10
2022-08-18T04:57:49.537Z,61.10
2022-08-18T05:00:23.637Z,61.00
2022-08-18T05:03:00.478Z,61.10
2022-08-18T05:05:34.632Z,61.10
2022-08-18T05:08:08.557Z,61.10
2022-08-18T05:10:42.518Z,61.10
2022-08-18T05:13:17.889Z,61.10
2022-08-18T05:16:10.086Z,61.10
2022-08-18T05:18:46.960Z,61.10
2022-08-18T05:21:21.848Z,61.10
2022-08-18T05:23:59.067Z,61.10
2022-08-18T05:26:33.515Z,61.10
2022-08-18T05:29:18.689Z,61.10
2022-08-18T05:31:54.804Z,61.10
2022-08-18T05:34:30.246Z,61.10
2022-08-18T05:37:22.811Z,61.10
2022-08-18T05:40:00.334Z,61.10
2022-08-18T05:42:41.556Z,61.20
2022-08-18T05:45:18.618Z,61.20
2022-08-18T05:47:53.154Z,61.20
2022-08-18T05:50:30.455Z,61.20
2022-08-18T05:53:13.866Z,61.20
2022-08-18T05:56:17.887Z,61.20
2022-08-18T05:58:55.788Z,61.20
2022-08-18T06:01:34.889Z,61.20
2022-08-18T06:04:20.432Z,61.10
2022-08-18T06:06:58.702Z,61.10
2022-08-18T06:09:38.029Z,61.10
2022-08-18T06:12:20.967Z,61.10
2022-08-18T06:15:06.320Z,61.10
2022-08-18T06:18:06.290Z,61.10
2022-08-18T06:20:57.279Z,61.10
2022-08-18T06:23:42.311Z,61.00
2022-08-18T06:26:20.764Z,61.10
2022-08-18T06:29:07.662Z,61.20
2022-08-18T06:31:48.814Z,61.20
2022-08-18T06:34:35.002Z,61.10
2022-08-18T06:37:16.229Z,62.80
2022-08-18T06:39:52.955Z,64.40
2022-08-18T06:42:30.806Z,64.60
2022-08-18T06:45:13.120Z,63.50
2022-08-18T06:47:54.836Z,61.40
2022-08-18T06:50:34.228Z,60.00
2022-08-18T06:53:19.067Z,58.90
2022-08-18T06:56:25.839Z,57.80
2022-08-18T06:59:17.020Z,56.30
2022-08-18T07:01:57.837Z,56.00
2022-08-18T07:04:40.703Z,56.30
2022-08-18T07:07:17.763Z,56.30
2022-08-18T07:09:51.870Z,56.00
2022-08-18T07:12:32.687Z,55.60
2022-08-18T07:15:08.429Z,55.40
2022-08-18T07:17:51.537Z,54.90
2022-08-18T07:20:27.510Z,54.40
2022-08-18T07:23:07.906Z,53.80
2022-08-18T07:25:46.407Z,52.40
2022-08-18T07:28:31.554Z,51.90
2022-08-18T07:31:20.517Z,52.00
2022-08-18T07:33:59.247Z,51.40
2022-08-18T07:36:41.434Z,50.00
2022-08-18T07:39:22.309Z,48.70
2022-08-18T07:42:03.324Z,48.30
2022-08-18T07:44:46.216Z,47.60
2022-08-18T07:47:24.891Z,47.30
2022-08-18T07:50:23.002Z,47.40
2022-08-18T07:53:08.859Z,47.40
2022-08-18T07:55:47.314Z,47.70
2022-08-18T07:58:28.334Z,47.30
2022-08-18T08:01:07.093Z,47.40
2022-08-18T08:03:51.900Z,47.20
2022-08-18T08:06:33.600Z,47.00
2022-08-18T08:09:22.688Z,46.80
2022-08-18T08:11:59.780Z,46.50
2022-08-18T08:14:42.293Z,46.60
2022-08-18T08:17:25.565Z,46.30
2022-08-18T08:20:15.936Z,46.00
2022-08-18T08:23:09.507Z,45.50
2022-08-18T08:25:52.547Z,44.90
2022-08-18T08:28:38.515Z,44.60
2022-08-18T08:31:36.256Z,44.00
2022-08-18T08:34:18.272Z,43.90
2022-08-18T08:36:59.378Z,43.40
2022-08-18T08:39:40.431Z,43.30
2022-08-18T08:42:30.697Z,42.90
2022-08-18T08:45:11.320Z,42.80
2022-08-18T08:47:53.460Z,43.00
2022-08-18T08:50:32.389Z,43.50
2022-08-18T08:53:13.903Z,43.80
2022-08-18T08:55:51.516Z,43.90
2022-08-18T08:58:30.533Z,43.80
2022-08-18T09:01:05.949Z,43.60
2022-08-18T09:03:49.516Z,43.60
2022-08-18T09:06:35.970Z,43.40
2022-08-18T09:09:25.271Z,43.30
2022-08-18T09:12:27.047Z,43.70
2022-08-18T09:15:26.669Z,43.30
2022-08-18T09:18:27.761Z,43.60
2022-08-18T09:21:16.145Z,43.80
2022-08-18T09:23:56.200Z,43.70
2022-08-18T09:26:43.822Z,43.90
2022-08-18T09:29:23.676Z,43.60
2022-08-18T09:32:35.785Z,44.00
2022-08-18T09:35:27.639Z,43.90
2022-08-18T09:38:27.362Z,43.90
2022-08-18T09:41:31.366Z,44.40
2022-08-18T09:44:21.671Z,44.10
2022-08-18T09:47:01.961Z,44.20
2022-08-18T09:49:56.991Z,44.80
2022-08-18T09:53:02.449Z,45.00
2022-08-18T09:56:01.339Z,44.40
2022-08-18T09:58:56.704Z,44.50
2022-08-18T10:01:40.028Z,44.40
2022-08-18T10:04:30.002Z,44.40
2022-08-18T10:07:34.016Z,44.30
2022-08-18T10:11:00.548Z,44.90
2022-08-18T10:13:25.670Z,44.40
2022-08-18T10:16:12.085Z,44.60
2022-08-18T10:18:56.033Z,43.80
2022-08-18T10:21:53.866Z,43.70
2022-08-18T10:24:35.854Z,43.70
2022-08-18T10:27:33.529Z,43.60
2022-08-18T10:31:05.958Z,43.70
2022-08-18T10:34:16.337Z,44.30
2022-08-18T10:36:54.608Z,44.30
2022-08-18T10:39:47.615Z,44.70
2022-08-18T10:42:31.156Z,44.70
2022-08-18T10:45:24.604Z,46.40
2022-08-18T10:51:21.556Z,47.40
2022-08-18T10:54:04.535Z,47.30
2022-08-18T10:56:45.673Z,47.10
2022-08-18T10:59:29.926Z,47.00
2022-08-18T11:02:18.185Z,46.70
2022-08-18T11:07:52.122Z,46.20
2022-08-18T11:10:58.212Z,46.00
2022-08-18T11:13:39.568Z,45.60
2022-08-18T11:16:26.635Z,45.50
2022-08-18T11:19:10.799Z,45.20
2022-08-18T11:21:51.358Z,45.30
2022-08-18T11:24:28.932Z,45.50
2022-08-18T11:30:03.119Z,44.70
2022-08-18T11:32:51.401Z,44.80
2022-08-18T11:35:32.124Z,44.30
2022-08-18T11:38:13.713Z,43.80
2022-08-18T11:41:13.565Z,44.00
2022-08-18T11:43:50.714Z,43.70
2022-08-18T11:46:32.006Z,43.30
2022-08-18T11:52:26.062Z,43.30
2022-08-18T11:55:14.541Z,44.30
2022-08-18T11:57:56.203Z,44.30
2022-08-18T12:00:44.291Z,44.40
2022-08-18T12:03:28.470Z,44.00
2022-08-18T12:06:19.032Z,44.10
2022-08-18T12:09:00.617Z,44.00
2022-08-18T12:11:41.348Z,43.70
2022-08-18T12:17:16.069Z,43.50
2022-08-18T12:19:50.201Z,43.40
2022-08-18T12:22:28.392Z,43.10
2022-08-18T12:25:04.414Z,42.70
2022-08-18T12:27:46.460Z,42.70
2022-08-18T12:30:21.820Z,42.70
2022-08-18T12:33:04.851Z,42.50
2022-08-18T12:38:36.477Z,42.30
2022-08-18T12:41:18.560Z,41.90
2022-08-18T12:46:51.798Z,41.70
2022-08-18T12:49:27.492Z,41.80
2022-08-18T12:52:03.827Z,41.40
2022-08-18T12:54:38.233Z,41.20
2022-08-18T13:00:28.816Z,41.40
2022-08-18T13:03:03.297Z,41.50
2022-08-18T13:05:38.605Z,41.50
2022-08-18T13:08:30.558Z,41.60
2022-08-18T13:11:15.153Z,41.20
2022-08-18T13:13:57.186Z,41.10
2022-08-18T13:16:53.469Z,41.50
2022-08-18T13:19:33.200Z,41.10
2022-08-18T13:22:07.361Z,41.10
2022-08-18T13:24:44.545Z,41.20
2022-08-18T13:27:23.243Z,41.30
2022-08-18T13:29:58.855Z,41.30
2022-08-18T13:32:39.500Z,41.30
2022-08-18T13:35:30.185Z,41.00
2022-08-18T13:38:18.832Z,40.90
2022-08-18T13:40:56.962Z,41.00
2022-08-18T13:43:35.658Z,41.40
2022-08-18T13:46:12.785Z,41.70
2022-08-18T13:48:47.488Z,42.10
2022-08-18T13:51:25.869Z,42.40
2022-08-18T13:54:26.520Z,42.50
2022-08-18T13:56:53.936Z,42.60
2022-08-18T13:59:31.807Z,43.10
2022-08-18T14:02:10.140Z,43.10
2022-08-18T14:04:44.406Z,43.30
2022-08-18T14:07:27.287Z,43.40
2022-08-18T14:10:03.607Z,43.50
2022-08-18T14:12:39.959Z,43.70
2022-08-18T14:15:16.170Z,43.70
2022-08-18T14:17:52.224Z,43.80
2022-08-18T14:20:48.416Z,43.90
2022-08-18T14:23:39.739Z,43.90
2022-08-18T14:26:43.127Z,44.10
2022-08-18T14:29:18.115Z,44.30
2022-08-18T14:32:18.067Z,44.30
2022-08-18T14:35:00.393Z,44.70
2022-08-18T14:37:35.172Z,45.60
2022-08-18T14:40:12.386Z,46.10
2022-08-18T14:42:54.489Z,45.90
2022-08-18T14:45:34.245Z,45.80
2022-08-18T14:48:11.169Z,45.70
2022-08-18T14:50:50.397Z,45.80
2022-08-18T14:53:26.831Z,47.60
2022-08-18T14:56:01.408Z,48.80
2022-08-18T14:58:37.380Z,48.00
2022-08-18T15:01:13.500Z,47.70
2022-08-18T15:03:50.308Z,47.60
2022-08-18T15:06:27.296Z,47.70
2022-08-18T15:09:01.525Z,48.20
2022-08-18T15:11:36.478Z,48.30
2022-08-18T15:14:12.439Z,48.60
2022-08-18T15:16:47.505Z,48.90
2022-08-18T15:19:59.945Z,49.00
2022-08-18T15:22:35.886Z,49.10
2022-08-18T15:25:43.100Z,49.20
2022-08-18T15:28:19.895Z,49.60
2022-08-18T15:33:50.153Z,50.70
2022-08-18T15:36:29.292Z,51.30
2022-08-18T15:39:06.241Z,51.70
2022-08-18T15:41:48.872Z,51.80
2022-08-18T15:44:23.878Z,51.70
2022-08-18T15:46:57.939Z,52.20
2022-08-18T15:49:33.856Z,52.30
2022-08-18T15:52:11.949Z,52.10
2022-08-18T15:54:50.425Z,52.10
2022-08-18T15:57:39.878Z,51.90
2022-08-18T16:00:17.793Z,51.80
2022-08-18T16:02:53.639Z,51.80
2022-08-18T16:05:29.696Z,51.80
2022-08-18T16:08:06.614Z,51.90
2022-08-18T16:10:42.655Z,51.80
2022-08-18T16:13:16.737Z,51.90
2022-08-18T16:15:50.878Z,51.90
2022-08-18T16:18:25.156Z,52.00
2022-08-18T16:21:05.823Z,51.90
2022-08-18T16:23:41.859Z,52.00
2022-08-18T16:29:01.309Z,52.00
2022-08-18T16:31:35.950Z,52.10
2022-08-18T16:34:10.760Z,52.10
2022-08-18T16:36:44.941Z,52.10
2022-08-18T16:39:19.750Z,52.10
2022-08-18T16:41:55.801Z,52.20
2022-08-18T16:44:32.974Z,52.20
2022-08-18T16:47:07.882Z,52.20
2022-08-18T16:49:41.950Z,52.20
2022-08-18T16:52:16.143Z,52.20
2022-08-18T16:54:57.474Z,52.20
2022-08-18T16:57:53.405Z,52.20
2022-08-18T17:00:54.462Z,52.30
2022-08-18T17:04:01.517Z,52.30
2022-08-18T17:06:36.373Z,52.40
2022-08-18T17:09:22.609Z,52.40
2022-08-18T17:11:56.768Z,52.40
2022-08-18T17:14:33.179Z,52.50
2022-08-18T17:17:07.831Z,52.60
2022-08-18T17:19:41.803Z,52.60
2022-08-18T17:22:17.406Z,52.60
2022-08-18T17:24:52.711Z,52.60
2022-08-18T17:27:37.657Z,52.60
2022-08-18T17:30:17.349Z,52.70
2022-08-18T17:32:55.594Z,52.70
2022-08-18T17:35:37.519Z,52.80
2022-08-18T17:38:18.617Z,52.80
2022-08-18T17:40:55.840Z,52.90
2022-08-18T17:43:34.259Z,52.90
2022-08-18T17:46:13.607Z,53.20
2022-08-18T17:48:53.506Z,53.30
2022-08-18T17:51:34.924Z,53.00
2022-08-18T17:54:17.518Z,52.60
2022-08-18T17:56:55.021Z,52.00
2022-08-18T17:59:45.624Z,52.00
2022-08-18T18:02:30.622Z,51.00
2022-08-18T18:05:09.426Z,50.40
2022-08-18T18:07:58.175Z,49.80
2022-08-18T18:11:02.321Z,49.10
2022-08-18T18:13:36.568Z,48.80
2022-08-18T18:16:25.903Z,48.50
2022-08-18T18:19:04.591Z,48.30
2022-08-18T18:22:00.872Z,48.30
2022-08-18T18:24:34.639Z,48.00
2022-08-18T18:27:27.091Z,47.90
2022-08-18T18:30:03.552Z,47.20
2022-08-18T18:32:59.129Z,47.40
2022-08-18T18:35:54.225Z,47.30
2022-08-18T18:38:31.268Z,47.40
2022-08-18T18:41:07.667Z,47.00
2022-08-18T18:43:43.792Z,46.90
2022-08-18T18:46:30.061Z,47.00
2022-08-18T18:49:18.307Z,47.70
2022-08-18T18:52:06.651Z,47.60
2022-08-18T18:55:02.369Z,47.60
2022-08-18T18:57:43.097Z,47.70
2022-08-18T19:00:22.098Z,47.70
2022-08-18T19:03:04.705Z,47.70
2022-08-18T19:05:46.047Z,47.80
2022-08-18T19:08:33.317Z,47.80
2022-08-18T19:11:17.742Z,47.50
2022-08-18T19:13:56.855Z,47.30
2022-08-18T19:16:35.981Z,47.20
2022-08-18T19:19:38.335Z,47.30
2022-08-18T19:22:18.765Z,48.40
2022-08-18T19:25:09.801Z,48.90
2022-08-18T19:27:49.793Z,49.80
2022-08-18T19:30:24.628Z,50.90
2022-08-18T19:33:01.213Z,50.90
2022-08-18T19:35:41.827Z,52.10
2022-08-18T19:38:23.109Z,53.40
2022-08-18T19:41:05.764Z,53.70
2022-08-18T19:43:47.567Z,53.70
2022-08-18T19:46:37.148Z,54.00
2022-08-18T19:49:20.849Z,54.20
2022-08-18T19:52:02.552Z,54.20
2022-08-18T19:54:50.954Z,54.20
2022-08-18T19:57:41.778Z,54.70
2022-08-18T20:00:24.736Z,55.50
2022-08-18T20:03:18.805Z,55.30
2022-08-18T20:06:34.443Z,55.60
2022-08-18T20:09:29.696Z,55.60
2022-08-18T20:12:18.081Z,55.90
2022-08-18T20:15:03.361Z,55.90
2022-08-18T20:18:02.919Z,56.00
2022-08-18T20:20:39.360Z,56.30
2022-08-18T20:23:34.646Z,56.10
2022-08-18T20:26:42.690Z,56.60
2022-08-18T20:29:19.583Z,56.70
2022-08-18T20:32:03.079Z,56.60
2022-08-18T20:34:37.368Z,56.80
2022-08-18T20:37:24.449Z,56.60
2022-08-18T20:39:58.884Z,56.80
2022-08-18T20:42:57.470Z,56.80
2022-08-18T20:45:46.220Z,57.00
2022-08-18T20:48:35.796Z,56.90
2022-08-18T20:51:12.784Z,57.00
2022-08-18T20:54:13.342Z,57.00
2022-08-18T20:56:53.576Z,57.20
2022-08-18T20:59:40.940Z,57.20
2022-08-18T21:02:29.281Z,57.30
2022-08-18T21:05:05.623Z,57.30
2022-08-18T21:08:06.322Z,57.10
2022-08-18T21:10:49.992Z,57.70
2022-08-18T21:13:36.282Z,58.00
2022-08-18T21:16:11.708Z,58.40
2022-08-18T21:18:52.416Z,58.50
2022-08-18T21:21:31.124Z,58.70
2022-08-18T21:24:06.406Z,58.90
2022-08-18T21:26:41.123Z,58.80
2022-08-18T21:29:16.249Z,58.80
2022-08-18T21:31:51.002Z,58.80
2022-08-18T21:34:33.800Z,58.90
2022-08-18T21:37:11.444Z,59.10
2022-08-18T21:39:54.108Z,59.00
2022-08-18T21:42:31.977Z,59.20
2022-08-18T21:45:06.785Z,59.20
2022-08-18T21:47:49.497Z,59.20
2022-08-18T21:50:26.539Z,59.50
2022-08-18T21:53:05.471Z,59.50
2022-08-18T21:55:43.166Z,59.70
2022-08-18T21:58:33.751Z,59.70
2022-08-18T22:01:14.952Z,59.90
2022-08-18T22:03:59.681Z,59.80
2022-08-18T22:06:40.475Z,60.00
2022-08-18T22:09:36.104Z,59.70
2022-08-18T22:12:43.830Z,59.80
2022-08-18T22:15:21.097Z,59.90
2022-08-18T22:17:58.461Z,59.90
2022-08-18T22:20:44.522Z,60.00
2022-08-18T22:23:56.076Z,60.20
2022-08-18T22:26:33.317Z,60.20
2022-08-18T22:29:19.934Z,60.10
2022-08-18T22:31:55.971Z,60.00
2022-08-18T22:34:32.204Z,60.00
2022-08-18T22:37:10.859Z,60.20
2022-08-18T22:39:48.238Z,60.40
2022-08-18T22:42:25.868Z,60.50
2022-08-18T22:45:04.479Z,60.40
2022-08-18T22:47:42.903Z,60.30
2022-08-18T22:50:19.597Z,60.40
2022-08-18T22:52:54.016Z,60.20
2022-08-18T22:55:28.386Z,60.10
2022-08-18T22:58:04.263Z,60.00
2022-08-18T23:00:41.342Z,60.10
2022-08-18T23:03:17.056Z,60.30
2022-08-18T23:05:51.201Z,60.50
2022-08-18T23:08:39.327Z,60.50
2022-08-18T23:11:19.188Z,60.50
2022-08-18T23:13:54.696Z,60.60
2022-08-18T23:16:31.168Z,60.60
2022-08-18T23:19:06.097Z,60.70
2022-08-18T23:21:40.507Z,60.80
2022-08-18T23:24:16.364Z,60.80
2022-08-18T23:26:50.772Z,60.70
2022-08-18T23:29:26.181Z,60.80
2022-08-18T23:32:00.319Z,60.90
2022-08-18T23:34:36.357Z,61.00
2022-08-18T23:37:11.129Z,61.00
2022-08-18T23:39:48.317Z,60.90
2022-08-18T23:42:23.279Z,61.10
2022-08-18T23:45:03.405Z,61.00
2022-08-18T23:47:37.613Z,61.00
2022-08-18T23:50:12.727Z,61.00
2022-08-18T23:52:48.174Z,60.80
2022-08-18T23:55:23.848Z,60.80
2022-08-18T23:57:58.209Z,60.70
